createdAt,value
2018-03-14T00:01:41.991Z,65.03
2018-03-14T00:04:09.544Z,65.55
2018-03-14T00:06:37.582Z,65.85
2018-03-14T00:09:05.133Z,64.97
2018-03-14T00:11:32.657Z,65.35
2018-03-14T00:14:00.225Z,64.78
2018-03-14T00:16:27.787Z,64.85
2018-03-14T00:18:56.278Z,66.44
2018-03-14T00:21:23.828Z,65.58
2018-03-14T00:23:51.350Z,65.27
2018-03-14T00:26:19.293Z,65.60
2018-03-14T00:28:46.829Z,65.66
2018-03-14T00:31:14.365Z,65.86
2018-03-14T00:33:41.929Z,66.20
2018-03-14T00:36:09.474Z,66.10
2018-03-14T00:38:37.256Z,66.26
2018-03-14T00:41:05.767Z,66.53
2018-03-14T00:43:33.282Z,66.51
2018-03-14T00:46:00.834Z,66.63
2018-03-14T00:48:29.367Z,66.64
2018-03-14T00:50:57.104Z,67.20
2018-03-14T00:53:24.643Z,66.75
2018-03-14T00:55:52.186Z,66.33
2018-03-14T00:58:19.755Z,66.59
2018-03-14T01:00:47.286Z,66.06
2018-03-14T01:03:15.221Z,66.06
2018-03-14T01:05:43.625Z,66.42
2018-03-14T01:08:11.149Z,65.62
2018-03-14T01:10:38.695Z,65.62
2018-03-14T01:13:06.219Z,65.67
2018-03-14T01:15:33.925Z,65.08
2018-03-14T01:18:01.448Z,64.72
2018-03-14T01:20:28.974Z,64.05
2018-03-14T01:22:56.524Z,63.95
2018-03-14T01:25:24.057Z,63.67
2018-03-14T01:27:51.826Z,63.24
2018-03-14T01:30:19.363Z,63.56
2018-03-14T01:32:46.893Z,63.50
2018-03-14T01:35:14.437Z,64.78
2018-03-14T01:37:41.976Z,64.15
2018-03-14T01:40:09.682Z,64.59
2018-03-14T01:42:37.215Z,64.68
2018-03-14T01:45:04.740Z,64.88
2018-03-14T01:47:32.733Z,64.78
2018-03-14T01:50:00.277Z,64.82
2018-03-14T01:52:28.129Z,65.45
2018-03-14T01:54:55.649Z,65.34
2018-03-14T01:57:24.198Z,64.03
2018-03-14T01:59:51.755Z,64.32
2018-03-14T02:02:19.277Z,64.08
2018-03-14T02:04:46.953Z,64.07
2018-03-14T02:07:14.474Z,63.49
2018-03-14T02:09:42.481Z,64.68
2018-03-14T02:12:10.022Z,64.80
2018-03-14T02:14:37.545Z,64.85
2018-03-14T02:17:05.262Z,63.79
2018-03-14T02:19:32.788Z,63.70
2018-03-14T02:22:00.326Z,63.88
2018-03-14T02:24:27.874Z,63.58
2018-03-14T02:26:55.414Z,64.33
2018-03-14T02:29:23.261Z,63.72
2018-03-14T02:31:50.791Z,63.35
2018-03-14T02:34:18.320Z,64.11
2018-03-14T02:36:57.833Z,64.32
2018-03-14T02:39:25.361Z,63.46
2018-03-14T02:41:53.142Z,63.87
2018-03-14T02:44:20.684Z,63.48
2018-03-14T02:46:48.217Z,63.31
2018-03-14T02:49:16.664Z,63.27
2018-03-14T02:51:44.174Z,63.04
2018-03-14T02:54:11.965Z,63.76
2018-03-14T02:56:39.492Z,63.45
2018-03-14T02:59:07.518Z,63.57
2018-03-14T03:01:35.085Z,63.17
2018-03-14T03:04:02.597Z,63.55
2018-03-14T03:06:30.154Z,63.03
2018-03-14T03:08:57.666Z,62.74
2018-03-14T03:11:25.178Z,62.96
2018-03-14T03:13:52.722Z,62.53
2018-03-14T03:16:20.246Z,62.32
2018-03-14T03:18:47.986Z,62.44
2018-03-14T03:21:15.957Z,62.26
2018-03-14T03:23:43.465Z,62.24
2018-03-14T03:26:11.011Z,62.39
2018-03-14T03:28:38.521Z,62.59
2018-03-14T03:31:07.008Z,62.99
2018-03-14T03:33:35.474Z,62.59
2018-03-14T03:36:02.986Z,62.17
2018-03-14T03:38:30.611Z,62.38
2018-03-14T03:40:58.121Z,62.42
2018-03-14T03:43:25.667Z,62.10
2018-03-14T03:45:53.177Z,61.89
2018-03-14T03:48:20.686Z,62.07
2018-03-14T03:50:49.127Z,62.33
2018-03-14T03:53:17.583Z,62.22
2018-03-14T03:55:45.339Z,62.47
2018-03-14T03:58:12.849Z,62.39
2018-03-14T04:00:41.328Z,62.43
2018-03-14T04:03:09.254Z,62.77
2018-03-14T04:05:36.770Z,63.21
2018-03-14T04:08:04.340Z,63.29
2018-03-14T04:10:32.774Z,63.35
2018-03-14T04:13:00.285Z,62.91
2018-03-14T04:15:28.710Z,63.21
2018-03-14T04:17:56.225Z,62.25
2018-03-14T04:20:23.931Z,61.98
2018-03-14T04:22:51.442Z,62.11
2018-03-14T04:25:18.948Z,62.47
2018-03-14T04:27:46.482Z,62.31
2018-03-14T04:30:13.990Z,62.39
2018-03-14T04:32:41.543Z,62.92
2018-03-14T04:35:09.048Z,62.36
2018-03-14T04:37:37.566Z,62.23
2018-03-14T04:40:05.117Z,62.18
2018-03-14T04:42:32.633Z,62.57
2018-03-14T04:45:00.525Z,62.23
2018-03-14T04:47:28.044Z,62.88
2018-03-14T04:49:55.549Z,63.03
2018-03-14T04:52:23.078Z,62.82
2018-03-14T04:54:50.606Z,62.79
2018-03-14T04:57:18.369Z,62.40
2018-03-14T04:59:45.874Z,62.73
2018-03-14T05:02:13.391Z,62.25
2018-03-14T05:04:40.970Z,62.24
2018-03-14T05:07:08.478Z,62.81
2018-03-14T05:09:36.219Z,63.07
2018-03-14T05:12:03.730Z,63.05
2018-03-14T05:14:31.233Z,63.06
2018-03-14T05:16:58.777Z,63.03
2018-03-14T05:19:26.298Z,63.20
2018-03-14T05:21:53.849Z,63.86
2018-03-14T05:24:21.366Z,63.51
2018-03-14T05:26:48.930Z,63.46
2018-03-14T05:29:16.445Z,64.53
2018-03-14T05:31:44.889Z,64.61
2018-03-14T05:34:12.444Z,64.35
2018-03-14T05:36:39.957Z,64.81
2018-03-14T05:39:08.590Z,64.75
2018-03-14T05:41:36.142Z,64.74
2018-03-14T05:44:03.645Z,65.89
2018-03-14T05:46:31.190Z,65.13
2018-03-14T05:48:58.694Z,65.64
2018-03-14T05:51:26.206Z,65.50
2018-03-14T05:53:53.751Z,65.45
2018-03-14T05:56:21.257Z,64.61
2018-03-14T05:58:50.188Z,64.49
2018-03-14T06:01:17.698Z,64.36
2018-03-14T06:03:45.203Z,64.14
2018-03-14T06:06:12.734Z,64.56
2018-03-14T06:08:40.237Z,64.61
2018-03-14T06:11:07.966Z,64.59
2018-03-14T06:13:35.496Z,64.57
2018-03-14T06:16:03.005Z,65.03
2018-03-14T06:18:30.535Z,64.69
2018-03-14T06:20:58.049Z,63.92
2018-03-14T06:23:25.601Z,63.70
2018-03-14T06:25:53.114Z,63.83
2018-03-14T06:28:20.641Z,63.39
2018-03-14T06:30:48.177Z,63.28
2018-03-14T06:33:15.690Z,63.04
2018-03-14T06:35:43.477Z,63.50
2018-03-14T06:38:10.990Z,63.64
2018-03-14T06:40:38.510Z,63.42
2018-03-14T06:43:06.461Z,63.23
2018-03-14T06:45:33.972Z,63.39
2018-03-14T06:48:01.529Z,62.35
2018-03-14T06:50:29.039Z,61.87
2018-03-14T06:52:56.578Z,61.50
2018-03-14T06:55:24.109Z,60.95
2018-03-14T06:57:51.617Z,61.06
2018-03-14T07:00:31.767Z,61.62
2018-03-14T07:03:11.113Z,61.23
2018-03-14T07:05:50.437Z,59.96
2018-03-14T07:08:17.950Z,60.20
2018-03-14T07:10:45.738Z,59.10
2018-03-14T07:13:13.246Z,59.29
2018-03-14T07:15:40.775Z,59.04
2018-03-14T07:18:08.318Z,58.65
2018-03-14T07:20:35.830Z,57.75
2018-03-14T07:23:03.378Z,57.47
2018-03-14T07:25:30.906Z,56.81
2018-03-14T07:27:58.422Z,57.68
2018-03-14T07:30:25.970Z,56.77
2018-03-14T07:32:53.484Z,56.01
2018-03-14T07:35:21.046Z,55.82
2018-03-14T07:37:48.609Z,55.98
2018-03-14T07:40:16.125Z,56.03
2018-03-14T07:42:44.134Z,55.46
2018-03-14T07:45:11.795Z,54.45
2018-03-14T07:47:39.739Z,54.10
2018-03-14T07:50:07.280Z,53.34
2018-03-14T07:52:34.794Z,53.14
2018-03-14T07:55:02.334Z,52.96
2018-03-14T07:57:30.308Z,54.19
2018-03-14T07:59:57.849Z,53.84
2018-03-14T08:02:26.450Z,52.92
2018-03-14T08:04:54.413Z,53.74
2018-03-14T08:07:21.952Z,54.25
2018-03-14T08:09:49.468Z,52.78
2018-03-14T08:12:17.114Z,52.08
2018-03-14T08:14:44.625Z,50.04
2018-03-14T08:17:12.142Z,48.77
2018-03-14T08:19:39.684Z,47.94
2018-03-14T08:22:07.231Z,45.61
2018-03-14T08:24:34.968Z,46.29
2018-03-14T08:27:02.481Z,45.92
2018-03-14T08:29:30.117Z,45.76
2018-03-14T08:31:57.656Z,46.08
2018-03-14T08:34:25.245Z,45.53
2018-03-14T08:36:52.874Z,45.55
2018-03-14T08:39:20.452Z,45.48
2018-03-14T08:41:48.062Z,45.47
2018-03-14T08:44:15.775Z,45.48
2018-03-14T08:46:43.312Z,44.85
2018-03-14T08:49:10.872Z,43.03
2018-03-14T08:51:38.378Z,42.06
2018-03-14T08:54:05.898Z,42.09
2018-03-14T08:56:33.463Z,41.74
2018-03-14T08:59:00.974Z,40.41
2018-03-14T09:01:28.537Z,38.80
2018-03-14T09:03:57.310Z,39.68
2018-03-14T09:06:24.830Z,37.95
2018-03-14T09:08:53.677Z,36.50
2018-03-14T09:11:21.692Z,35.19
2018-03-14T09:13:49.354Z,35.55
2018-03-14T09:16:16.893Z,35.20
2018-03-14T09:18:44.427Z,33.94
2018-03-14T09:21:11.970Z,32.78
2018-03-14T09:23:39.486Z,34.11
2018-03-14T09:26:07.329Z,32.81
2018-03-14T09:28:34.846Z,32.44
2018-03-14T09:31:02.367Z,33.69
2018-03-14T09:33:29.915Z,32.82
2018-03-14T09:35:57.441Z,27.25
2018-03-14T09:38:25.122Z,23.76
2018-03-14T09:40:52.632Z,20.30
2018-03-14T09:43:20.157Z,17.98
2018-03-14T09:45:47.702Z,14.38
2018-03-14T09:48:15.694Z,13.95
2018-03-14T09:50:43.429Z,12.28
2018-03-14T09:53:11.071Z,14.46
2018-03-14T09:55:38.595Z,13.68
2018-03-14T09:58:06.215Z,12.86
2018-03-14T10:00:33.732Z,13.68
2018-03-14T10:03:01.271Z,13.61
2018-03-14T10:05:28.786Z,13.32
2018-03-14T10:07:56.301Z,13.57
2018-03-14T10:10:23.843Z,14.65
2018-03-14T10:12:51.551Z,11.92
2018-03-14T10:15:19.261Z,11.33
2018-03-14T10:17:46.792Z,11.63
2018-03-14T10:20:14.476Z,10.66
2018-03-14T10:22:42.444Z,10.75
2018-03-14T10:25:10.928Z,9.75
2018-03-14T10:27:38.779Z,9.14
2018-03-14T10:30:06.664Z,9.81
2018-03-14T10:32:34.195Z,11.81
2018-03-14T10:35:01.734Z,14.39
2018-03-14T10:37:29.282Z,15.03
2018-03-14T10:39:56.975Z,16.41
2018-03-14T10:42:24.970Z,18.60
2018-03-14T10:44:52.474Z,15.99
2018-03-14T10:47:20.007Z,13.19
2018-03-14T10:49:47.581Z,13.19
2018-03-14T10:52:15.138Z,13.32
2018-03-14T10:54:42.653Z,13.85
2018-03-14T10:57:10.166Z,17.29
2018-03-14T10:59:37.709Z,18.76
2018-03-14T11:05:10.222Z,21.71
2018-03-14T11:07:37.757Z,20.16
2018-03-14T11:10:05.629Z,19.00
2018-03-14T11:12:33.138Z,19.06
2018-03-14T11:15:00.662Z,17.15
2018-03-14T11:17:28.204Z,19.10
2018-03-14T11:19:55.714Z,19.85
2018-03-14T11:22:24.213Z,18.37
2018-03-14T11:24:51.721Z,16.03
2018-03-14T11:27:19.234Z,15.43
2018-03-14T11:29:46.782Z,16.52
2018-03-14T11:32:14.297Z,17.92
2018-03-14T11:34:41.982Z,16.73
2018-03-14T11:37:09.772Z,16.00
2018-03-14T11:39:37.300Z,16.19
2018-03-14T11:42:04.843Z,14.71
2018-03-14T11:44:32.360Z,13.93
2018-03-14T11:47:00.086Z,13.75
2018-03-14T11:49:27.595Z,15.18
2018-03-14T11:51:55.100Z,16.05
2018-03-14T11:54:22.629Z,12.32
2018-03-14T11:56:50.188Z,12.08
2018-03-14T11:59:17.878Z,10.51
2018-03-14T12:01:45.397Z,12.02
2018-03-14T12:04:12.907Z,11.46
2018-03-14T12:06:40.450Z,10.89
2018-03-14T12:09:08.014Z,12.17
2018-03-14T12:11:35.554Z,11.57
2018-03-14T12:14:03.088Z,10.38
2018-03-14T12:16:30.597Z,10.11
2018-03-14T12:18:58.126Z,8.75
2018-03-14T12:21:25.633Z,8.15
2018-03-14T12:23:53.483Z,8.30
2018-03-14T12:26:21.205Z,8.84
2018-03-14T12:28:48.742Z,8.69
2018-03-14T12:31:16.484Z,8.84
2018-03-14T12:33:44.003Z,10.39
2018-03-14T12:36:12.068Z,13.30
2018-03-14T12:38:39.585Z,14.00
2018-03-14T12:41:07.117Z,13.41
2018-03-14T12:43:34.794Z,11.69
2018-03-14T12:46:02.411Z,11.18
2018-03-14T12:48:30.525Z,10.00
2018-03-14T12:50:58.290Z,8.76
2018-03-14T12:53:26.156Z,10.29
2018-03-14T12:55:54.124Z,9.38
2018-03-14T12:58:21.686Z,10.09
2018-03-14T13:00:49.437Z,10.81
2018-03-14T13:03:17.305Z,11.10
2018-03-14T13:05:45.032Z,12.41
2018-03-14T13:08:12.828Z,11.95
2018-03-14T13:10:40.374Z,11.27
2018-03-14T13:13:08.211Z,12.46
2018-03-14T13:15:35.828Z,16.29
2018-03-14T13:18:03.592Z,18.98
2018-03-14T13:20:31.333Z,22.06
2018-03-14T13:22:58.850Z,23.06
2018-03-14T13:25:26.411Z,24.79
2018-03-14T13:27:54.125Z,22.46
2018-03-14T13:30:21.650Z,18.91
2018-03-14T13:32:49.243Z,15.07
2018-03-14T13:35:17.428Z,13.21
2018-03-14T13:37:45.032Z,17.69
2018-03-14T13:40:12.611Z,18.47
2018-03-14T13:42:40.152Z,16.98
2018-03-14T13:45:07.718Z,20.41
2018-03-14T13:47:35.225Z,18.36
2018-03-14T13:50:02.954Z,17.84
2018-03-14T13:52:30.501Z,16.68
2018-03-14T13:54:58.049Z,16.60
2018-03-14T13:57:25.972Z,15.86
2018-03-14T13:59:53.521Z,15.73
2018-03-14T14:02:21.098Z,14.82
2018-03-14T14:04:48.671Z,15.83
2018-03-14T14:07:16.722Z,14.15
2018-03-14T14:09:44.256Z,14.39
2018-03-14T14:12:11.987Z,14.46
2018-03-14T14:14:39.707Z,14.27
2018-03-14T14:17:07.224Z,13.84
2018-03-14T14:19:34.874Z,15.09
2018-03-14T14:22:02.389Z,14.27
2018-03-14T14:24:30.035Z,14.65
2018-03-14T14:26:57.622Z,16.34
2018-03-14T14:29:25.151Z,16.97
2018-03-14T14:31:52.803Z,16.08
2018-03-14T14:34:20.661Z,17.00
2018-03-14T14:36:48.206Z,16.79
2018-03-14T14:39:15.914Z,17.56
2018-03-14T14:41:43.660Z,17.14
2018-03-14T14:44:11.442Z,16.78
2018-03-14T14:46:39.103Z,16.16
2018-03-14T14:49:07.585Z,16.34
2018-03-14T14:51:35.862Z,15.57
2018-03-14T14:54:03.475Z,16.10
2018-03-14T14:56:31.023Z,18.09
2018-03-14T14:58:59.704Z,18.06
2018-03-14T15:01:27.297Z,17.65
2018-03-14T15:03:55.091Z,19.47
2018-03-14T15:06:22.854Z,22.06
2018-03-14T15:08:50.823Z,22.12
2018-03-14T15:11:18.558Z,21.55
2018-03-14T15:13:46.455Z,21.53
2018-03-14T15:16:14.631Z,21.79
2018-03-14T15:18:43.214Z,21.62
2018-03-14T15:21:11.190Z,21.60
2018-03-14T15:23:38.931Z,23.36
2018-03-14T15:26:07.015Z,25.07
2018-03-14T15:28:34.985Z,26.65
2018-03-14T15:31:02.913Z,27.88
2018-03-14T15:33:31.026Z,29.43
2018-03-14T15:35:58.881Z,31.53
2018-03-14T15:38:26.968Z,31.81
2018-03-14T15:40:54.828Z,32.91
2018-03-14T15:43:23.515Z,33.53
2018-03-14T15:45:51.482Z,34.02
2018-03-14T15:48:19.341Z,35.02
2018-03-14T15:50:47.281Z,35.38
2018-03-14T15:53:14.980Z,35.59
2018-03-14T15:55:42.744Z,36.19
2018-03-14T15:58:10.510Z,37.08
2018-03-14T16:00:38.271Z,36.21
2018-03-14T16:03:06.343Z,36.98
2018-03-14T16:05:34.004Z,37.06
2018-03-14T16:08:01.556Z,37.36
2018-03-14T16:10:29.224Z,37.25
2018-03-14T16:12:57.091Z,37.51
2018-03-14T16:15:24.956Z,37.26
2018-03-14T16:17:52.630Z,37.05
2018-03-14T16:20:20.280Z,37.08
2018-03-14T16:22:48.249Z,37.29
2018-03-14T16:25:16.117Z,36.72
2018-03-14T16:27:43.880Z,37.10
2018-03-14T16:30:11.747Z,37.47
2018-03-14T16:32:39.513Z,37.28
2018-03-14T16:35:07.377Z,37.67
2018-03-14T16:37:35.222Z,38.19
2018-03-14T16:40:03.100Z,37.41
2018-03-14T16:42:30.874Z,37.63
2018-03-14T16:44:58.720Z,37.52
2018-03-14T16:47:26.505Z,38.10
2018-03-14T16:49:54.373Z,38.79
2018-03-14T16:52:22.749Z,38.68
2018-03-14T16:54:50.618Z,39.38
2018-03-14T16:57:18.482Z,41.09
2018-03-14T16:59:46.449Z,41.72
2018-03-14T17:02:14.238Z,41.86
2018-03-14T17:04:42.184Z,41.66
2018-03-14T17:07:10.051Z,42.09
2018-03-14T17:09:37.919Z,42.74
2018-03-14T17:12:05.884Z,42.45
2018-03-14T17:14:33.857Z,42.88
2018-03-14T17:17:01.888Z,42.82
2018-03-14T17:19:29.792Z,43.79
2018-03-14T17:21:57.659Z,44.01
2018-03-14T17:24:25.627Z,43.86
2018-03-14T17:26:53.498Z,44.14
2018-03-14T17:29:21.564Z,44.23
2018-03-14T17:31:49.613Z,45.03
2018-03-14T17:34:17.608Z,44.99
2018-03-14T17:36:45.575Z,45.35
2018-03-14T17:39:13.544Z,45.00
2018-03-14T17:41:41.781Z,45.15
2018-03-14T17:44:09.688Z,45.90
2018-03-14T17:46:37.488Z,45.58
2018-03-14T17:49:05.317Z,46.51
2018-03-14T17:51:33.859Z,45.72
2018-03-14T17:54:02.381Z,46.11
2018-03-14T17:56:30.206Z,46.02
2018-03-14T17:58:58.114Z,46.22
2018-03-14T18:01:26.082Z,46.67
2018-03-14T18:03:53.949Z,47.20
2018-03-14T18:06:22.225Z,47.40
2018-03-14T18:08:51.628Z,48.11
2018-03-14T18:11:19.698Z,47.66
2018-03-14T18:13:48.795Z,47.80
2018-03-14T18:16:16.763Z,48.03
2018-03-14T18:18:46.883Z,48.30
2018-03-14T18:21:14.749Z,48.83
2018-03-14T18:23:42.716Z,48.71
2018-03-14T18:26:11.502Z,48.72
2018-03-14T18:28:39.369Z,48.88
2018-03-14T18:31:07.640Z,48.99
2018-03-14T18:33:35.641Z,49.13
2018-03-14T18:36:07.679Z,49.42
2018-03-14T18:38:35.956Z,49.11
2018-03-14T18:41:03.924Z,49.63
2018-03-14T18:43:31.723Z,50.22
2018-03-14T18:45:59.762Z,50.35
2018-03-14T18:48:27.627Z,50.26
2018-03-14T18:50:55.742Z,50.44
2018-03-14T18:53:24.440Z,50.71
2018-03-14T18:55:52.556Z,50.97
2018-03-14T18:58:20.422Z,50.79
2018-03-14T19:00:49.109Z,51.14
2018-03-14T19:03:18.786Z,51.58
2018-03-14T19:05:46.685Z,51.49
2018-03-14T19:08:15.082Z,51.38
2018-03-14T19:10:42.889Z,51.39
2018-03-14T19:13:10.750Z,52.27
2018-03-14T19:15:38.646Z,52.61
2018-03-14T19:18:06.531Z,52.52
2018-03-14T19:20:36.035Z,52.42
2018-03-14T19:23:04.108Z,52.08
2018-03-14T19:25:32.586Z,52.55
2018-03-14T19:28:00.561Z,52.65
2018-03-14T19:30:28.832Z,52.43
2018-03-14T19:32:57.109Z,52.40
2018-03-14T19:35:25.075Z,52.44
2018-03-14T19:37:52.918Z,53.20
2018-03-14T19:40:21.013Z,52.90
2018-03-14T19:42:49.098Z,52.86
2018-03-14T19:45:17.366Z,52.74
2018-03-14T19:47:45.228Z,52.51
2018-03-14T19:50:13.212Z,52.92
2018-03-14T19:52:42.190Z,52.51
2018-03-14T19:55:10.061Z,52.57
2018-03-14T19:57:38.146Z,52.55
2018-03-14T20:00:07.016Z,52.83
2018-03-14T20:02:34.883Z,52.01
2018-03-14T20:05:02.856Z,51.77
2018-03-14T20:07:30.718Z,52.32
2018-03-14T20:09:58.994Z,52.94
2018-03-14T20:12:26.861Z,52.74
2018-03-14T20:14:54.669Z,53.00
2018-03-14T20:17:22.697Z,53.13
2018-03-14T20:19:50.558Z,53.01
2018-03-14T20:22:18.755Z,53.35
2018-03-14T20:24:47.286Z,53.43
2018-03-14T20:27:15.390Z,53.49
2018-03-14T20:29:43.359Z,53.70
2018-03-14T20:32:11.225Z,53.89
2018-03-14T20:34:39.129Z,53.38
2018-03-14T20:37:07.020Z,53.43
2018-03-14T20:39:35.238Z,53.21
2018-03-14T20:42:03.182Z,53.33
2018-03-14T20:44:31.071Z,53.88
2018-03-14T20:47:00.136Z,54.06
2018-03-14T20:49:28.208Z,54.06
2018-03-14T20:51:57.228Z,54.13
2018-03-14T20:54:25.261Z,54.93
2018-03-14T20:56:53.166Z,55.05
2018-03-14T20:59:21.739Z,55.54
2018-03-14T21:01:50.640Z,55.57
2018-03-14T21:04:18.713Z,55.46
2018-03-14T21:06:46.680Z,55.86
2018-03-14T21:09:15.263Z,55.83
2018-03-14T21:11:44.667Z,55.88
2018-03-14T21:14:13.454Z,55.85
2018-03-14T21:16:41.320Z,56.09
2018-03-14T21:19:09.290Z,56.08
2018-03-14T21:21:38.198Z,56.06
2018-03-14T21:24:06.251Z,56.44
2018-03-14T21:26:34.556Z,56.44
2018-03-14T21:29:02.496Z,56.58
2018-03-14T21:31:30.364Z,56.87
2018-03-14T21:33:58.638Z,57.04
2018-03-14T21:36:26.847Z,57.16
2018-03-14T21:38:55.663Z,57.19
2018-03-14T21:41:24.285Z,57.14
2018-03-14T21:43:52.253Z,57.02
2018-03-14T21:46:20.187Z,56.93
2018-03-14T21:48:48.501Z,56.81
2018-03-14T21:51:16.410Z,56.56
2018-03-14T21:53:44.281Z,56.27
2018-03-14T21:56:12.207Z,56.57
2018-03-14T21:58:39.967Z,56.56
2018-03-14T22:01:07.937Z,56.87
2018-03-14T22:03:36.007Z,56.47
2018-03-14T22:06:04.332Z,56.57
2018-03-14T22:08:32.559Z,56.66
2018-03-14T22:11:00.222Z,57.11
2018-03-14T22:13:28.107Z,56.85
2018-03-14T22:15:55.952Z,56.98
2018-03-14T22:18:23.819Z,56.75
2018-03-14T22:20:51.468Z,57.13
2018-03-14T22:23:19.288Z,57.04
2018-03-14T22:25:47.010Z,57.57
2018-03-14T22:28:14.772Z,57.40
2018-03-14T22:30:42.639Z,57.01
2018-03-14T22:33:10.260Z,57.00
2018-03-14T22:35:37.889Z,57.14
2018-03-14T22:38:05.604Z,56.87
2018-03-14T22:40:33.184Z,56.99
2018-03-14T22:43:00.802Z,57.16
2018-03-14T22:45:28.352Z,57.13
2018-03-14T22:47:55.893Z,57.58
2018-03-14T22:50:23.623Z,57.61
2018-03-14T22:52:51.285Z,57.22
2018-03-14T22:55:19.006Z,57.34
2018-03-14T22:57:46.714Z,57.05
2018-03-14T23:00:14.683Z,57.17
2018-03-14T23:02:42.546Z,56.81
2018-03-14T23:05:11.193Z,57.09
2018-03-14T23:07:39.289Z,56.97
2018-03-14T23:10:06.938Z,57.41
2018-03-14T23:12:34.731Z,57.42
2018-03-14T23:15:02.482Z,57.22
2018-03-14T23:17:30.259Z,57.30
2018-03-14T23:19:58.213Z,57.47
2018-03-14T23:22:25.874Z,57.55
2018-03-14T23:24:53.530Z,57.70
2018-03-14T23:27:21.211Z,58.10
2018-03-14T23:29:48.858Z,58.30
2018-03-14T23:32:16.453Z,58.22
2018-03-14T23:34:44.298Z,57.86
2018-03-14T23:37:11.887Z,57.81
2018-03-14T23:39:39.518Z,57.83
2018-03-14T23:42:07.038Z,58.14
2018-03-14T23:44:34.817Z,58.54
2018-03-14T23:47:02.342Z,58.49
2018-03-14T23:49:29.849Z,58.64
2018-03-14T23:51:57.381Z,58.82
2018-03-14T23:54:24.895Z,58.88
2018-03-14T23:56:53.355Z,58.71
2018-03-14T23:59:20.870Z,58.62
